sensor_id;sensor_type;location;lat;lon;timestamp;temperature;humidity
31765;DHT22;18338;53.240;8.798;2022-12-18T00:02:14;-6.40;99.90
31765;DHT22;18338;53.240;8.798;2022-12-18T00:04:40;-6.40;99.90
31765;DHT22;18338;53.240;8.798;2022-12-18T00:07:07;-6.50;99.90
31765;DHT22;18338;53.240;8.798;2022-12-18T00:09:34;-6.40;99.90
31765;DHT22;18338;53.240;8.798;2022-12-18T00:12:06;-6.50;99.90
31765;DHT22;18338;53.240;8.798;2022-12-18T00:14:41;-6.50;99.90
31765;DHT22;18338;53.240;8.798;2022-12-18T00:17:08;-6.60;99.90
31765;DHT22;18338;53.240;8.798;2022-12-18T00:19:35;-6.60;99.90
31765;DHT22;18338;53.240;8.798;2022-12-18T00:22:02;-6.60;99.90
31765;DHT22;18338;53.240;8.798;2022-12-18T00:24:28;-6.60;99.90
31765;DHT22;18338;53.240;8.798;2022-12-18T00:26:55;-6.60;99.90
31765;DHT22;18338;53.240;8.798;2022-12-18T00:29:22;-6.60;99.90
31765;DHT22;18338;53.240;8.798;2022-12-18T00:31:48;-6.70;99.90
31765;DHT22;18338;53.240;8.798;2022-12-18T00:34:15;-6.70;99.90
31765;DHT22;18338;53.240;8.798;2022-12-18T00:36:42;-6.60;99.90
31765;DHT22;18338;53.240;8.798;2022-12-18T00:39:10;-6.70;99.90
31765;DHT22;18338;53.240;8.798;2022-12-18T00:41:37;-6.70;99.90
31765;DHT22;18338;53.240;8.798;2022-12-18T00:44:22;-6.70;99.90
31765;DHT22;18338;53.240;8.798;2022-12-18T00:46:49;-6.70;99.90
31765;DHT22;18338;53.240;8.798;2022-12-18T00:49:17;-6.70;99.90
31765;DHT22;18338;53.240;8.798;2022-12-18T00:51:45;-6.70;99.90
31765;DHT22;18338;53.240;8.798;2022-12-18T00:54:12;-6.80;99.90
31765;DHT22;18338;53.240;8.798;2022-12-18T00:56:39;-6.80;99.90
31765;DHT22;18338;53.240;8.798;2022-12-18T00:59:14;-6.90;99.90
31765;DHT22;18338;53.240;8.798;2022-12-18T01:01:41;-6.90;99.90
31765;DHT22;18338;53.240;8.798;2022-12-18T01:04:08;-6.90;99.90
31765;DHT22;18338;53.240;8.798;2022-12-18T01:06:48;-6.90;99.90
31765;DHT22;18338;53.240;8.798;2022-12-18T01:09:15;-7.00;99.90
31765;DHT22;18338;53.240;8.798;2022-12-18T01:11:42;-7.00;99.90
31765;DHT22;18338;53.240;8.798;2022-12-18T01:14:08;-7.00;99.90
31765;DHT22;18338;53.240;8.798;2022-12-18T01:16:35;-7.00;99.90
31765;DHT22;18338;53.240;8.798;2022-12-18T01:19:02;-7.10;99.90
31765;DHT22;18338;53.240;8.798;2022-12-18T01:21:28;-7.10;99.90
31765;DHT22;18338;53.240;8.798;2022-12-18T01:23:56;-7.10;99.90
31765;DHT22;18338;53.240;8.798;2022-12-18T01:26:24;-7.10;99.90
31765;DHT22;18338;53.240;8.798;2022-12-18T01:28:51;-7.10;99.90
31765;DHT22;18338;53.240;8.798;2022-12-18T01:31:21;-7.10;99.90
31765;DHT22;18338;53.240;8.798;2022-12-18T01:33:49;-7.20;99.90
31765;DHT22;18338;53.240;8.798;2022-12-18T01:36:24;-7.30;99.90
31765;DHT22;18338;53.240;8.798;2022-12-18T01:38:52;-7.40;99.90
31765;DHT22;18338;53.240;8.798;2022-12-18T01:41:23;-7.40;99.90
31765;DHT22;18338;53.240;8.798;2022-12-18T01:43:58;-7.40;99.90
31765;DHT22;18338;53.240;8.798;2022-12-18T01:46:26;-7.40;99.90
31765;DHT22;18338;53.240;8.798;2022-12-18T01:48:57;-7.30;99.90
31765;DHT22;18338;53.240;8.798;2022-12-18T01:51:27;-7.30;99.90
31765;DHT22;18338;53.240;8.798;2022-12-18T01:53:54;-7.30;99.90
31765;DHT22;18338;53.240;8.798;2022-12-18T01:56:21;-7.30;99.90
31765;DHT22;18338;53.240;8.798;2022-12-18T01:59:14;-7.30;99.90
31765;DHT22;18338;53.240;8.798;2022-12-18T02:01:41;-7.40;99.90
31765;DHT22;18338;53.240;8.798;2022-12-18T02:04:21;-7.40;99.90
31765;DHT22;18338;53.240;8.798;2022-12-18T02:09:35;-7.30;99.90
31765;DHT22;18338;53.240;8.798;2022-12-18T02:12:13;-7.40;99.90
31765;DHT22;18338;53.240;8.798;2022-12-18T02:14:51;-7.30;99.90
31765;DHT22;18338;53.240;8.798;2022-12-18T02:17:37;-7.30;99.90
31765;DHT22;18338;53.240;8.798;2022-12-18T02:20:18;-7.40;99.90
31765;DHT22;18338;53.240;8.798;2022-12-18T02:22:59;-7.50;99.90
31765;DHT22;18338;53.240;8.798;2022-12-18T02:28:21;-7.70;99.90
31765;DHT22;18338;53.240;8.798;2022-12-18T02:30:50;-7.70;99.90
31765;DHT22;18338;53.240;8.798;2022-12-18T02:33:19;-7.70;99.90
31765;DHT22;18338;53.240;8.798;2022-12-18T02:35:48;-7.80;99.90
31765;DHT22;18338;53.240;8.798;2022-12-18T02:38:16;-7.80;99.90
31765;DHT22;18338;53.240;8.798;2022-12-18T02:40:44;-7.80;99.90
31765;DHT22;18338;53.240;8.798;2022-12-18T02:43:14;-7.80;99.90
31765;DHT22;18338;53.240;8.798;2022-12-18T02:48:57;-7.80;99.90
31765;DHT22;18338;53.240;8.798;2022-12-18T02:51:33;-7.90;99.90
31765;DHT22;18338;53.240;8.798;2022-12-18T02:54:15;-7.90;99.90
31765;DHT22;18338;53.240;8.798;2022-12-18T02:56:48;-7.80;99.90
31765;DHT22;18338;53.240;8.798;2022-12-18T02:59:26;-7.80;99.90
31765;DHT22;18338;53.240;8.798;2022-12-18T03:02:23;-7.80;99.90
31765;DHT22;18338;53.240;8.798;2022-12-18T03:05:01;-7.80;99.90
31765;DHT22;18338;53.240;8.798;2022-12-18T03:07:37;-7.80;99.90
31765;DHT22;18338;53.240;8.798;2022-12-18T03:10:06;-7.80;99.90
31765;DHT22;18338;53.240;8.798;2022-12-18T03:12:39;-7.80;99.90
31765;DHT22;18338;53.240;8.798;2022-12-18T03:15:35;-7.70;99.90
31765;DHT22;18338;53.240;8.798;2022-12-18T03:18:04;-7.60;99.90
31765;DHT22;18338;53.240;8.798;2022-12-18T03:20:32;-7.60;99.90
31765;DHT22;18338;53.240;8.798;2022-12-18T03:23:13;-7.60;99.90
31765;DHT22;18338;53.240;8.798;2022-12-18T03:25:43;-7.70;99.90
31765;DHT22;18338;53.240;8.798;2022-12-18T03:28:14;-7.90;99.90
31765;DHT22;18338;53.240;8.798;2022-12-18T03:30:43;-8.00;99.90
31765;DHT22;18338;53.240;8.798;2022-12-18T03:33:39;-7.90;99.90
31765;DHT22;18338;53.240;8.798;2022-12-18T03:36:05;-7.90;99.90
31765;DHT22;18338;53.240;8.798;2022-12-18T03:38:31;-7.90;99.90
31765;DHT22;18338;53.240;8.798;2022-12-18T03:41:28;-8.00;99.90
31765;DHT22;18338;53.240;8.798;2022-12-18T03:44:10;-8.10;99.90
31765;DHT22;18338;53.240;8.798;2022-12-18T03:46:48;-8.20;99.90
31765;DHT22;18338;53.240;8.798;2022-12-18T03:49:40;-8.20;99.90
31765;DHT22;18338;53.240;8.798;2022-12-18T03:52:17;-8.10;99.90
31765;DHT22;18338;53.240;8.798;2022-12-18T03:54:45;-8.00;99.90
31765;DHT22;18338;53.240;8.798;2022-12-18T03:57:19;-7.80;99.90
31765;DHT22;18338;53.240;8.798;2022-12-18T03:59:50;-7.60;99.90
31765;DHT22;18338;53.240;8.798;2022-12-18T04:02:18;-7.50;99.90
31765;DHT22;18338;53.240;8.798;2022-12-18T04:04:47;-7.40;99.90
31765;DHT22;18338;53.240;8.798;2022-12-18T04:07:15;-7.60;99.90
31765;DHT22;18338;53.240;8.798;2022-12-18T04:09:44;-7.60;99.90
31765;DHT22;18338;53.240;8.798;2022-12-18T04:12:12;-7.60;99.90
31765;DHT22;18338;53.240;8.798;2022-12-18T04:14:39;-7.50;99.90
31765;DHT22;18338;53.240;8.798;2022-12-18T04:17:06;-7.60;99.90
31765;DHT22;18338;53.240;8.798;2022-12-18T04:19:32;-7.60;99.90
31765;DHT22;18338;53.240;8.798;2022-12-18T04:21:59;-7.60;99.90
31765;DHT22;18338;53.240;8.798;2022-12-18T04:24:26;-7.70;99.90
31765;DHT22;18338;53.240;8.798;2022-12-18T04:26:52;-7.80;99.90
31765;DHT22;18338;53.240;8.798;2022-12-18T04:29:19;-7.90;99.90
31765;DHT22;18338;53.240;8.798;2022-12-18T04:31:46;-7.90;99.90
31765;DHT22;18338;53.240;8.798;2022-12-18T04:34:13;-7.90;99.90
31765;DHT22;18338;53.240;8.798;2022-12-18T04:36:39;-7.90;99.90
31765;DHT22;18338;53.240;8.798;2022-12-18T04:39:07;-7.80;99.90
31765;DHT22;18338;53.240;8.798;2022-12-18T04:41:34;-7.80;99.90
31765;DHT22;18338;53.240;8.798;2022-12-18T04:44:01;-7.80;99.90
31765;DHT22;18338;53.240;8.798;2022-12-18T04:46:28;-7.80;99.90
31765;DHT22;18338;53.240;8.798;2022-12-18T04:48:54;-7.90;99.90
31765;DHT22;18338;53.240;8.798;2022-12-18T04:51:21;-8.00;99.90
31765;DHT22;18338;53.240;8.798;2022-12-18T04:53:52;-8.10;99.90
31765;DHT22;18338;53.240;8.798;2022-12-18T04:56:19;-8.20;99.90
31765;DHT22;18338;53.240;8.798;2022-12-18T04:58:46;-8.30;99.90
31765;DHT22;18338;53.240;8.798;2022-12-18T05:01:15;-8.20;99.90
31765;DHT22;18338;53.240;8.798;2022-12-18T05:03:42;-8.20;99.90
31765;DHT22;18338;53.240;8.798;2022-12-18T05:06:10;-8.20;99.90
31765;DHT22;18338;53.240;8.798;2022-12-18T05:08:37;-8.10;99.90
31765;DHT22;18338;53.240;8.798;2022-12-18T05:11:10;-8.00;99.90
31765;DHT22;18338;53.240;8.798;2022-12-18T05:13:37;-8.00;99.90
31765;DHT22;18338;53.240;8.798;2022-12-18T05:16:05;-7.90;99.90
31765;DHT22;18338;53.240;8.798;2022-12-18T05:18:33;-8.00;99.90
31765;DHT22;18338;53.240;8.798;2022-12-18T05:21:00;-8.10;99.90
31765;DHT22;18338;53.240;8.798;2022-12-18T05:23:27;-8.30;99.90
31765;DHT22;18338;53.240;8.798;2022-12-18T05:25:55;-8.50;99.90
31765;DHT22;18338;53.240;8.798;2022-12-18T05:28:23;-8.60;99.90
31765;DHT22;18338;53.240;8.798;2022-12-18T05:30:52;-8.70;99.90
31765;DHT22;18338;53.240;8.798;2022-12-18T05:33:20;-8.70;99.90
31765;DHT22;18338;53.240;8.798;2022-12-18T05:36:07;-8.70;99.90
31765;DHT22;18338;53.240;8.798;2022-12-18T05:38:36;-8.70;99.90
31765;DHT22;18338;53.240;8.798;2022-12-18T05:41:03;-8.70;99.90
31765;DHT22;18338;53.240;8.798;2022-12-18T05:43:30;-8.70;99.90
31765;DHT22;18338;53.240;8.798;2022-12-18T05:45:57;-8.70;99.90
31765;DHT22;18338;53.240;8.798;2022-12-18T05:48:24;-8.50;99.90
31765;DHT22;18338;53.240;8.798;2022-12-18T05:50:51;-8.40;99.90
31765;DHT22;18338;53.240;8.798;2022-12-18T05:53:19;-8.30;99.90
31765;DHT22;18338;53.240;8.798;2022-12-18T05:55:47;-8.10;99.90
31765;DHT22;18338;53.240;8.798;2022-12-18T05:58:14;-8.00;99.90
31765;DHT22;18338;53.240;8.798;2022-12-18T06:00:43;-8.00;99.90
31765;DHT22;18338;53.240;8.798;2022-12-18T06:03:11;-8.00;99.90
31765;DHT22;18338;53.240;8.798;2022-12-18T06:05:44;-8.00;99.90
31765;DHT22;18338;53.240;8.798;2022-12-18T06:08:12;-8.00;99.90
31765;DHT22;18338;53.240;8.798;2022-12-18T06:10:39;-7.90;99.90
31765;DHT22;18338;53.240;8.798;2022-12-18T06:13:06;-7.90;99.90
31765;DHT22;18338;53.240;8.798;2022-12-18T06:15:36;-7.80;99.90
31765;DHT22;18338;53.240;8.798;2022-12-18T06:18:03;-7.80;99.90
31765;DHT22;18338;53.240;8.798;2022-12-18T06:20:30;-7.80;99.90
31765;DHT22;18338;53.240;8.798;2022-12-18T06:22:59;-7.80;99.90
31765;DHT22;18338;53.240;8.798;2022-12-18T06:25:26;-7.80;99.90
31765;DHT22;18338;53.240;8.798;2022-12-18T06:27:52;-7.80;99.90
31765;DHT22;18338;53.240;8.798;2022-12-18T06:30:19;-7.80;99.90
31765;DHT22;18338;53.240;8.798;2022-12-18T06:32:48;-7.80;99.90
31765;DHT22;18338;53.240;8.798;2022-12-18T06:35:22;-7.70;99.90
31765;DHT22;18338;53.240;8.798;2022-12-18T06:37:48;-7.70;99.90
31765;DHT22;18338;53.240;8.798;2022-12-18T06:40:16;-7.70;99.90
31765;DHT22;18338;53.240;8.798;2022-12-18T06:42:42;-7.70;99.90
31765;DHT22;18338;53.240;8.798;2022-12-18T06:45:09;-7.60;99.90
31765;DHT22;18338;53.240;8.798;2022-12-18T06:47:36;-7.70;99.90
31765;DHT22;18338;53.240;8.798;2022-12-18T06:50:03;-7.70;99.90
31765;DHT22;18338;53.240;8.798;2022-12-18T06:52:32;-7.80;99.90
31765;DHT22;18338;53.240;8.798;2022-12-18T06:54:58;-7.80;99.90
31765;DHT22;18338;53.240;8.798;2022-12-18T06:57:25;-7.70;99.90
31765;DHT22;18338;53.240;8.798;2022-12-18T06:59:52;-7.80;99.90
31765;DHT22;18338;53.240;8.798;2022-12-18T07:02:18;-7.90;99.90
31765;DHT22;18338;53.240;8.798;2022-12-18T07:04:45;-7.90;99.90
31765;DHT22;18338;53.240;8.798;2022-12-18T07:07:12;-8.00;99.90
31765;DHT22;18338;53.240;8.798;2022-12-18T07:09:38;-7.90;99.90
31765;DHT22;18338;53.240;8.798;2022-12-18T07:12:05;-7.90;99.90
31765;DHT22;18338;53.240;8.798;2022-12-18T07:14:33;-7.90;99.90
31765;DHT22;18338;53.240;8.798;2022-12-18T07:17:00;-7.90;99.90
31765;DHT22;18338;53.240;8.798;2022-12-18T07:19:27;-7.90;99.90
31765;DHT22;18338;53.240;8.798;2022-12-18T07:21:54;-7.90;99.90
31765;DHT22;18338;53.240;8.798;2022-12-18T07:24:21;-7.90;99.90
31765;DHT22;18338;53.240;8.798;2022-12-18T07:26:48;-7.90;99.90
31765;DHT22;18338;53.240;8.798;2022-12-18T07:29:15;-7.80;99.90
31765;DHT22;18338;53.240;8.798;2022-12-18T07:31:42;-7.80;99.90
31765;DHT22;18338;53.240;8.798;2022-12-18T07:34:13;-7.70;99.90
31765;DHT22;18338;53.240;8.798;2022-12-18T07:36:40;-7.70;99.90
31765;DHT22;18338;53.240;8.798;2022-12-18T07:39:07;-7.70;99.90
31765;DHT22;18338;53.240;8.798;2022-12-18T07:41:33;-7.80;99.90
31765;DHT22;18338;53.240;8.798;2022-12-18T07:44:00;-7.80;99.90
31765;DHT22;18338;53.240;8.798;2022-12-18T07:46:27;-7.80;99.90
31765;DHT22;18338;53.240;8.798;2022-12-18T07:48:53;-7.70;99.90
31765;DHT22;18338;53.240;8.798;2022-12-18T07:51:20;-7.70;99.90
31765;DHT22;18338;53.240;8.798;2022-12-18T07:53:47;-7.70;99.90
31765;DHT22;18338;53.240;8.798;2022-12-18T07:56:18;-7.70;99.90
31765;DHT22;18338;53.240;8.798;2022-12-18T07:58:55;-7.60;99.90
31765;DHT22;18338;53.240;8.798;2022-12-18T08:01:22;-7.60;99.90
31765;DHT22;18338;53.240;8.798;2022-12-18T08:03:49;-7.50;99.90
31765;DHT22;18338;53.240;8.798;2022-12-18T08:06:18;-7.40;99.90
31765;DHT22;18338;53.240;8.798;2022-12-18T08:08:53;-7.30;99.90
31765;DHT22;18338;53.240;8.798;2022-12-18T08:11:21;-7.30;99.90
31765;DHT22;18338;53.240;8.798;2022-12-18T08:13:48;-7.30;99.90
31765;DHT22;18338;53.240;8.798;2022-12-18T08:16:16;-7.40;99.90
31765;DHT22;18338;53.240;8.798;2022-12-18T08:18:43;-7.10;99.90
31765;DHT22;18338;53.240;8.798;2022-12-18T08:21:15;-6.50;99.90
31765;DHT22;18338;53.240;8.798;2022-12-18T08:23:42;-6.30;99.90
31765;DHT22;18338;53.240;8.798;2022-12-18T08:26:10;-6.30;99.90
31765;DHT22;18338;53.240;8.798;2022-12-18T08:28:38;-6.30;99.90
31765;DHT22;18338;53.240;8.798;2022-12-18T08:31:05;-6.40;99.90
31765;DHT22;18338;53.240;8.798;2022-12-18T08:33:32;-6.50;99.90
31765;DHT22;18338;53.240;8.798;2022-12-18T08:35:59;-6.60;99.90
31765;DHT22;18338;53.240;8.798;2022-12-18T08:38:26;-6.70;99.90
31765;DHT22;18338;53.240;8.798;2022-12-18T08:41:10;-6.70;99.90
31765;DHT22;18338;53.240;8.798;2022-12-18T08:43:38;-6.60;99.90
31765;DHT22;18338;53.240;8.798;2022-12-18T08:46:24;-6.50;99.90
31765;DHT22;18338;53.240;8.798;2022-12-18T08:48:52;-6.30;99.90
31765;DHT22;18338;53.240;8.798;2022-12-18T08:51:20;-6.20;99.90
31765;DHT22;18338;53.240;8.798;2022-12-18T08:53:47;-6.10;99.90
31765;DHT22;18338;53.240;8.798;2022-12-18T08:56:14;-6.00;99.90
31765;DHT22;18338;53.240;8.798;2022-12-18T08:58:41;-5.90;99.90
31765;DHT22;18338;53.240;8.798;2022-12-18T09:01:09;-5.80;99.90
31765;DHT22;18338;53.240;8.798;2022-12-18T09:03:37;-5.40;99.90
31765;DHT22;18338;53.240;8.798;2022-12-18T09:06:05;-4.40;99.90
31765;DHT22;18338;53.240;8.798;2022-12-18T09:08:32;-4.10;99.90
31765;DHT22;18338;53.240;8.798;2022-12-18T09:10:59;-3.70;99.90
31765;DHT22;18338;53.240;8.798;2022-12-18T09:13:25;-3.60;99.90
31765;DHT22;18338;53.240;8.798;2022-12-18T09:15:54;-3.60;99.90
31765;DHT22;18338;53.240;8.798;2022-12-18T09:18:21;-3.70;99.90
31765;DHT22;18338;53.240;8.798;2022-12-18T09:20:49;-3.50;99.90
31765;DHT22;18338;53.240;8.798;2022-12-18T09:23:19;-3.10;99.90
31765;DHT22;18338;53.240;8.798;2022-12-18T09:25:46;-2.80;99.90
31765;DHT22;18338;53.240;8.798;2022-12-18T09:28:15;-2.40;99.90
31765;DHT22;18338;53.240;8.798;2022-12-18T09:30:46;-2.30;99.90
31765;DHT22;18338;53.240;8.798;2022-12-18T09:33:13;-2.20;99.90
31765;DHT22;18338;53.240;8.798;2022-12-18T09:35:41;-2.40;99.90
31765;DHT22;18338;53.240;8.798;2022-12-18T09:38:13;-2.50;99.90
31765;DHT22;18338;53.240;8.798;2022-12-18T09:40:44;-2.80;99.90
31765;DHT22;18338;53.240;8.798;2022-12-18T09:43:27;-2.70;99.90
31765;DHT22;18338;53.240;8.798;2022-12-18T09:46:03;-2.80;99.90
31765;DHT22;18338;53.240;8.798;2022-12-18T09:48:35;-2.70;99.90
31765;DHT22;18338;53.240;8.798;2022-12-18T09:51:16;-2.50;99.90
31765;DHT22;18338;53.240;8.798;2022-12-18T09:53:51;-2.40;99.90
31765;DHT22;18338;53.240;8.798;2022-12-18T09:56:19;-2.20;99.90
31765;DHT22;18338;53.240;8.798;2022-12-18T09:58:59;-2.00;99.90
31765;DHT22;18338;53.240;8.798;2022-12-18T10:01:28;-2.40;99.90
31765;DHT22;18338;53.240;8.798;2022-12-18T10:04:08;-2.40;99.90
31765;DHT22;18338;53.240;8.798;2022-12-18T10:06:55;-2.10;99.90
31765;DHT22;18338;53.240;8.798;2022-12-18T10:09:27;-2.10;99.90
31765;DHT22;18338;53.240;8.798;2022-12-18T10:17:34;-1.70;99.90
31765;DHT22;18338;53.240;8.798;2022-12-18T10:20:24;-1.40;99.90
31765;DHT22;18338;53.240;8.798;2022-12-18T10:23:29;-1.70;99.90
31765;DHT22;18338;53.240;8.798;2022-12-18T10:26:05;-1.60;99.90
31765;DHT22;18338;53.240;8.798;2022-12-18T10:28:35;-1.70;99.90
31765;DHT22;18338;53.240;8.798;2022-12-18T10:31:04;-1.80;99.90
31765;DHT22;18338;53.240;8.798;2022-12-18T10:33:33;-2.10;99.90
31765;DHT22;18338;53.240;8.798;2022-12-18T10:36:00;-2.10;99.90
31765;DHT22;18338;53.240;8.798;2022-12-18T10:38:29;-2.00;99.90
31765;DHT22;18338;53.240;8.798;2022-12-18T10:41:02;-2.00;99.90
31765;DHT22;18338;53.240;8.798;2022-12-18T10:43:34;-2.10;99.90
31765;DHT22;18338;53.240;8.798;2022-12-18T10:51:05;-2.20;99.90
31765;DHT22;18338;53.240;8.798;2022-12-18T10:53:40;-2.30;99.90
31765;DHT22;18338;53.240;8.798;2022-12-18T10:56:08;-2.30;99.90
31765;DHT22;18338;53.240;8.798;2022-12-18T10:58:37;-2.30;99.90
31765;DHT22;18338;53.240;8.798;2022-12-18T11:01:16;-2.20;99.90
31765;DHT22;18338;53.240;8.798;2022-12-18T11:06:18;-1.90;99.90
31765;DHT22;18338;53.240;8.798;2022-12-18T11:09:03;-1.80;99.90
31765;DHT22;18338;53.240;8.798;2022-12-18T11:11:38;-1.50;99.90
31765;DHT22;18338;53.240;8.798;2022-12-18T11:14:18;-1.30;99.90
31765;DHT22;18338;53.240;8.798;2022-12-18T11:16:48;-1.10;99.90
31765;DHT22;18338;53.240;8.798;2022-12-18T11:19:37;-1.00;99.90
31765;DHT22;18338;53.240;8.798;2022-12-18T11:22:20;-0.90;99.90
31765;DHT22;18338;53.240;8.798;2022-12-18T11:24:55;-0.90;99.90
31765;DHT22;18338;53.240;8.798;2022-12-18T11:27:58;-0.90;99.90
31765;DHT22;18338;53.240;8.798;2022-12-18T11:30:34;-0.70;99.90
31765;DHT22;18338;53.240;8.798;2022-12-18T11:33:19;-0.60;99.90
31765;DHT22;18338;53.240;8.798;2022-12-18T11:38:32;-0.40;99.90
31765;DHT22;18338;53.240;8.798;2022-12-18T11:43:35;-0.20;99.90
31765;DHT22;18338;53.240;8.798;2022-12-18T11:46:27;-0.20;99.90
31765;DHT22;18338;53.240;8.798;2022-12-18T11:49:17;-0.20;99.90
31765;DHT22;18338;53.240;8.798;2022-12-18T11:54:17;-0.10;99.90
31765;DHT22;18338;53.240;8.798;2022-12-18T12:00:13;0.10;99.90
31765;DHT22;18338;53.240;8.798;2022-12-18T12:11:08;0.60;99.90
31765;DHT22;18338;53.240;8.798;2022-12-18T12:16:51;0.70;99.90
31765;DHT22;18338;53.240;8.798;2022-12-18T12:25:14;0.60;99.90
31765;DHT22;18338;53.240;8.798;2022-12-18T12:31:00;0.50;99.90
31765;DHT22;18338;53.240;8.798;2022-12-18T12:33:42;0.30;99.90
31765;DHT22;18338;53.240;8.798;2022-12-18T12:36:35;0.40;99.90
31765;DHT22;18338;53.240;8.798;2022-12-18T12:39:07;0.50;99.90
31765;DHT22;18338;53.240;8.798;2022-12-18T12:41:37;0.50;99.90
31765;DHT22;18338;53.240;8.798;2022-12-18T12:44:30;0.70;99.90
31765;DHT22;18338;53.240;8.798;2022-12-18T12:47:01;0.60;99.90
31765;DHT22;18338;53.240;8.798;2022-12-18T12:49:33;0.50;99.90
31765;DHT22;18338;53.240;8.798;2022-12-18T12:52:18;0.50;99.90
31765;DHT22;18338;53.240;8.798;2022-12-18T12:54:48;0.30;99.90
31765;DHT22;18338;53.240;8.798;2022-12-18T12:57:23;0.10;99.90
31765;DHT22;18338;53.240;8.798;2022-12-18T13:02:31;-0.30;99.90
31765;DHT22;18338;53.240;8.798;2022-12-18T13:05:21;-0.40;99.90
31765;DHT22;18338;53.240;8.798;2022-12-18T13:08:03;-0.50;99.90
31765;DHT22;18338;53.240;8.798;2022-12-18T13:10:34;-0.70;99.90
31765;DHT22;18338;53.240;8.798;2022-12-18T13:13:11;-0.80;99.90
31765;DHT22;18338;53.240;8.798;2022-12-18T13:15:48;-0.80;99.90
31765;DHT22;18338;53.240;8.798;2022-12-18T13:18:22;-0.80;99.90
31765;DHT22;18338;53.240;8.798;2022-12-18T13:23:35;-0.90;99.90
31765;DHT22;18338;53.240;8.798;2022-12-18T13:34:22;-0.90;99.90
31765;DHT22;18338;53.240;8.798;2022-12-18T13:36:57;-1.00;99.90
31765;DHT22;18338;53.240;8.798;2022-12-18T13:39:43;-1.00;99.90
31765;DHT22;18338;53.240;8.798;2022-12-18T13:44:58;-1.00;99.90
31765;DHT22;18338;53.240;8.798;2022-12-18T13:47:31;-1.10;99.90
31765;DHT22;18338;53.240;8.798;2022-12-18T13:50:00;-1.10;99.90
31765;DHT22;18338;53.240;8.798;2022-12-18T13:52:32;-1.20;99.90
31765;DHT22;18338;53.240;8.798;2022-12-18T13:55:02;-1.20;99.90
31765;DHT22;18338;53.240;8.798;2022-12-18T13:57:36;-1.30;99.90
31765;DHT22;18338;53.240;8.798;2022-12-18T14:02:50;-1.50;99.90
31765;DHT22;18338;53.240;8.798;2022-12-18T14:05:29;-1.50;99.90
31765;DHT22;18338;53.240;8.798;2022-12-18T14:08:03;-1.50;99.90
31765;DHT22;18338;53.240;8.798;2022-12-18T14:10:31;-1.60;99.90
31765;DHT22;18338;53.240;8.798;2022-12-18T14:15:48;-1.70;99.90
31765;DHT22;18338;53.240;8.798;2022-12-18T14:20:59;-1.80;99.90
31765;DHT22;18338;53.240;8.798;2022-12-18T14:23:32;-1.80;99.90
31765;DHT22;18338;53.240;8.798;2022-12-18T14:26:00;-1.90;99.90
31765;DHT22;18338;53.240;8.798;2022-12-18T14:28:32;-1.90;99.90
31765;DHT22;18338;53.240;8.798;2022-12-18T14:30:58;-2.00;99.90
31765;DHT22;18338;53.240;8.798;2022-12-18T14:33:27;-2.00;99.90
31765;DHT22;18338;53.240;8.798;2022-12-18T14:40:55;-2.10;99.90
31765;DHT22;18338;53.240;8.798;2022-12-18T14:43:26;-2.20;99.90
31765;DHT22;18338;53.240;8.798;2022-12-18T14:45:54;-2.10;99.90
31765;DHT22;18338;53.240;8.798;2022-12-18T14:51:06;-2.20;99.90
31765;DHT22;18338;53.240;8.798;2022-12-18T14:56:14;-2.30;99.90
31765;DHT22;18338;53.240;8.798;2022-12-18T15:01:28;-2.30;99.90
31765;DHT22;18338;53.240;8.798;2022-12-18T15:03:57;-2.30;99.90
31765;DHT22;18338;53.240;8.798;2022-12-18T15:06:28;-2.40;99.90
31765;DHT22;18338;53.240;8.798;2022-12-18T15:08:55;-2.40;99.90
31765;DHT22;18338;53.240;8.798;2022-12-18T15:11:49;-2.50;99.90
31765;DHT22;18338;53.240;8.798;2022-12-18T15:14:41;-2.50;99.90
31765;DHT22;18338;53.240;8.798;2022-12-18T15:17:17;-2.50;99.90
31765;DHT22;18338;53.240;8.798;2022-12-18T15:19:45;-2.50;99.90
31765;DHT22;18338;53.240;8.798;2022-12-18T15:22:27;-2.60;99.90
31765;DHT22;18338;53.240;8.798;2022-12-18T15:24:56;-2.60;99.90
31765;DHT22;18338;53.240;8.798;2022-12-18T15:27:32;-2.60;99.90
31765;DHT22;18338;53.240;8.798;2022-12-18T15:32:37;-2.50;99.90
31765;DHT22;18338;53.240;8.798;2022-12-18T15:35:16;-2.50;99.90
31765;DHT22;18338;53.240;8.798;2022-12-18T15:37:43;-2.40;99.90
31765;DHT22;18338;53.240;8.798;2022-12-18T15:40:15;-2.40;99.90
31765;DHT22;18338;53.240;8.798;2022-12-18T15:42:43;-2.40;99.90
31765;DHT22;18338;53.240;8.798;2022-12-18T15:45:29;-2.30;99.90
31765;DHT22;18338;53.240;8.798;2022-12-18T15:47:55;-2.20;99.90
31765;DHT22;18338;53.240;8.798;2022-12-18T15:50:22;-2.10;99.90
31765;DHT22;18338;53.240;8.798;2022-12-18T15:52:51;-2.10;99.90
31765;DHT22;18338;53.240;8.798;2022-12-18T15:55:23;-2.00;99.90
31765;DHT22;18338;53.240;8.798;2022-12-18T15:58:09;-2.00;99.90
31765;DHT22;18338;53.240;8.798;2022-12-18T16:00:39;-1.90;99.90
31765;DHT22;18338;53.240;8.798;2022-12-18T16:03:06;-1.80;99.90
31765;DHT22;18338;53.240;8.798;2022-12-18T16:05:33;-1.80;99.90
31765;DHT22;18338;53.240;8.798;2022-12-18T16:08:00;-1.80;99.90
31765;DHT22;18338;53.240;8.798;2022-12-18T16:10:27;-1.80;99.90
31765;DHT22;18338;53.240;8.798;2022-12-18T16:12:54;-1.80;99.90
31765;DHT22;18338;53.240;8.798;2022-12-18T16:15:21;-1.80;99.90
31765;DHT22;18338;53.240;8.798;2022-12-18T16:17:50;-1.80;99.90
31765;DHT22;18338;53.240;8.798;2022-12-18T16:20:21;-1.70;99.90
31765;DHT22;18338;53.240;8.798;2022-12-18T16:22:48;-1.70;99.90
31765;DHT22;18338;53.240;8.798;2022-12-18T16:25:19;-1.70;99.90
31765;DHT22;18338;53.240;8.798;2022-12-18T16:27:47;-1.70;99.90
31765;DHT22;18338;53.240;8.798;2022-12-18T16:30:17;-1.70;99.90
31765;DHT22;18338;53.240;8.798;2022-12-18T16:32:44;-1.70;99.90
31765;DHT22;18338;53.240;8.798;2022-12-18T16:35:15;-1.70;99.90
31765;DHT22;18338;53.240;8.798;2022-12-18T16:37:43;-1.70;99.90
31765;DHT22;18338;53.240;8.798;2022-12-18T16:40:12;-1.60;99.90
31765;DHT22;18338;53.240;8.798;2022-12-18T16:42:40;-1.60;99.90
31765;DHT22;18338;53.240;8.798;2022-12-18T16:45:11;-1.60;99.90
31765;DHT22;18338;53.240;8.798;2022-12-18T16:47:39;-1.50;99.90
31765;DHT22;18338;53.240;8.798;2022-12-18T16:50:06;-1.50;99.90
31765;DHT22;18338;53.240;8.798;2022-12-18T16:52:34;-1.40;99.90
31765;DHT22;18338;53.240;8.798;2022-12-18T16:55:01;-1.50;99.90
31765;DHT22;18338;53.240;8.798;2022-12-18T16:57:28;-1.50;99.90
31765;DHT22;18338;53.240;8.798;2022-12-18T16:59:55;-1.40;99.90
31765;DHT22;18338;53.240;8.798;2022-12-18T17:02:30;-1.40;99.90
31765;DHT22;18338;53.240;8.798;2022-12-18T17:04:58;-1.40;99.90
31765;DHT22;18338;53.240;8.798;2022-12-18T17:07:25;-1.40;99.90
31765;DHT22;18338;53.240;8.798;2022-12-18T17:09:52;-1.40;99.90
31765;DHT22;18338;53.240;8.798;2022-12-18T17:12:20;-1.50;99.90
31765;DHT22;18338;53.240;8.798;2022-12-18T17:14:47;-1.40;99.90
31765;DHT22;18338;53.240;8.798;2022-12-18T17:17:14;-1.50;99.90
31765;DHT22;18338;53.240;8.798;2022-12-18T17:19:50;-1.50;99.90
31765;DHT22;18338;53.240;8.798;2022-12-18T17:22:18;-1.40;99.90
31765;DHT22;18338;53.240;8.798;2022-12-18T17:24:46;-1.40;99.90
31765;DHT22;18338;53.240;8.798;2022-12-18T17:27:12;-1.30;99.90
31765;DHT22;18338;53.240;8.798;2022-12-18T17:29:39;-1.40;99.90
31765;DHT22;18338;53.240;8.798;2022-12-18T17:32:14;-1.30;99.90